createdAt,value
2022-09-23T00:00:50.070Z,7.74
2022-09-23T00:02:49.124Z,7.77
2022-09-23T00:04:47.905Z,7.78
2022-09-23T00:06:45.949Z,7.79
2022-09-23T00:08:44.248Z,7.73
2022-09-23T00:10:42.297Z,7.67
2022-09-23T00:12:40.496Z,7.63
2022-09-23T00:14:39.994Z,7.62
2022-09-23T00:16:40.168Z,7.59
2022-09-23T00:18:38.850Z,7.64
2022-09-23T00:20:37.371Z,7.69
2022-09-23T00:22:35.587Z,7.73
2022-09-23T00:24:33.820Z,7.70
2022-09-23T00:26:31.965Z,7.69
2022-09-23T00:28:30.358Z,7.60
2022-09-23T00:30:28.667Z,7.53
2022-09-23T00:32:28.369Z,7.45
2022-09-23T00:34:26.441Z,7.41
2022-09-23T00:36:25.558Z,7.38
2022-09-23T00:38:23.657Z,7.41
2022-09-23T00:40:21.786Z,7.46
2022-09-23T00:42:22.754Z,7.53
2022-09-23T00:44:43.974Z,7.62
2022-09-23T00:46:44.524Z,7.67
2022-09-23T00:48:45.101Z,7.65
2022-09-23T00:50:46.926Z,7.63
2022-09-23T00:52:45.694Z,7.64
2022-09-23T00:54:46.708Z,7.57
2022-09-23T00:56:45.359Z,7.50
2022-09-23T00:58:45.808Z,7.47
2022-09-23T01:00:44.047Z,7.45
2022-09-23T01:02:42.204Z,7.41
2022-09-23T01:04:42.412Z,7.44
2022-09-23T01:06:40.969Z,7.52
2022-09-23T01:08:39.852Z,7.56
2022-09-23T01:10:48.760Z,7.59
2022-09-23T01:13:00.618Z,7.62
2022-09-23T01:15:10.561Z,7.58
2022-09-23T01:17:17.396Z,7.50
2022-09-23T01:19:35.805Z,7.37
2022-09-23T01:21:48.419Z,7.30
2022-09-23T01:24:34.787Z,7.23
2022-09-23T01:26:54.333Z,7.18
2022-09-23T01:29:15.163Z,7.23
2022-09-23T01:31:22.486Z,7.25
2022-09-23T01:33:25.847Z,7.26
2022-09-23T01:35:30.452Z,7.26
2022-09-23T01:37:35.835Z,7.21
2022-09-23T01:39:38.768Z,7.19
2022-09-23T01:41:51.896Z,7.19
2022-09-23T01:43:59.292Z,7.18
2022-09-23T01:46:00.527Z,7.26
2022-09-23T01:48:10.420Z,7.27
2022-09-23T01:50:27.024Z,7.32
2022-09-23T01:52:29.525Z,7.33
2022-09-23T01:54:33.471Z,7.32
2022-09-23T01:56:37.726Z,7.33
2022-09-23T01:58:44.234Z,7.33
2022-09-23T02:00:58.537Z,7.28
2022-09-23T02:03:04.924Z,7.22
2022-09-23T02:05:09.790Z,7.16
2022-09-23T02:07:15.658Z,7.12
2022-09-23T02:09:17.228Z,7.11
2022-09-23T02:11:16.656Z,7.12
2022-09-23T02:13:19.394Z,7.16
2022-09-23T02:15:20.773Z,7.15
2022-09-23T02:17:26.187Z,7.15
2022-09-23T02:19:31.658Z,7.13
2022-09-23T02:21:35.783Z,7.07
2022-09-23T02:23:43.035Z,7.01
2022-09-23T02:25:49.749Z,6.95
2022-09-23T02:27:57.281Z,6.92
2022-09-23T02:30:02.765Z,6.86
2022-09-23T02:32:15.960Z,6.83
2022-09-23T02:34:23.517Z,6.89
2022-09-23T02:36:31.517Z,6.88
2022-09-23T02:38:37.572Z,6.86
2022-09-23T02:40:39.622Z,6.81
2022-09-23T02:42:46.483Z,6.78
2022-09-23T02:44:44.817Z,6.74
2022-09-23T02:46:44.172Z,6.70
2022-09-23T02:48:46.489Z,6.56
2022-09-23T02:50:44.769Z,6.43
2022-09-23T02:52:44.344Z,6.27
2022-09-23T02:54:42.570Z,6.24
2022-09-23T02:56:41.880Z,6.21
2022-09-23T02:58:40.122Z,6.15
2022-09-23T03:00:50.158Z,6.15
2022-09-23T03:03:06.868Z,6.17
2022-09-23T03:05:12.727Z,6.15
2022-09-23T03:07:17.903Z,6.13
2022-09-23T03:09:22.687Z,6.14
2022-09-23T03:11:21.749Z,6.15
2022-09-23T03:13:30.031Z,6.11
2022-09-23T03:15:36.221Z,6.01
2022-09-23T03:17:39.401Z,5.95
2022-09-23T03:19:43.935Z,5.91
2022-09-23T03:21:46.538Z,5.87
2022-09-23T03:23:46.406Z,5.84
2022-09-23T03:25:50.141Z,5.79
2022-09-23T03:27:48.416Z,5.82
2022-09-23T03:29:50.089Z,5.85
2022-09-23T03:31:48.734Z,5.85
2022-09-23T03:33:51.433Z,5.83
2022-09-23T03:36:11.642Z,5.82
2022-09-23T03:38:16.310Z,5.82
2022-09-23T03:40:19.466Z,5.81
2022-09-23T03:42:22.499Z,5.76
2022-09-23T03:44:21.899Z,5.73
2022-09-23T03:46:20.075Z,5.63
2022-09-23T03:48:18.427Z,5.59
2022-09-23T03:50:17.822Z,5.57
2022-09-23T03:52:16.242Z,5.56
2022-09-23T03:54:14.317Z,5.60
2022-09-23T03:56:12.585Z,5.67
2022-09-23T03:58:12.486Z,5.75
2022-09-23T04:00:12.183Z,5.78
2022-09-23T04:02:12.044Z,5.87
2022-09-23T04:04:10.532Z,5.91
2022-09-23T04:06:09.133Z,5.82
2022-09-23T04:08:07.631Z,5.78
2022-09-23T04:10:07.174Z,5.76
2022-09-23T04:12:06.207Z,5.74
2022-09-23T04:14:06.228Z,5.74
2022-09-23T04:16:04.424Z,5.82
2022-09-23T04:18:02.640Z,5.91
2022-09-23T04:20:00.944Z,5.99
2022-09-23T04:21:59.027Z,6.05
2022-09-23T04:23:57.140Z,6.10
2022-09-23T04:25:55.606Z,6.18
2022-09-23T04:27:53.759Z,6.16
2022-09-23T04:29:53.334Z,6.18
2022-09-23T04:31:52.266Z,6.27
2022-09-23T04:33:50.494Z,6.30
2022-09-23T04:35:51.288Z,6.37
2022-09-23T04:37:49.582Z,6.50
2022-09-23T04:39:47.880Z,6.60
2022-09-23T04:41:46.654Z,6.77
2022-09-23T04:43:45.141Z,6.89
2022-09-23T04:45:45.315Z,6.99
2022-09-23T04:47:43.493Z,7.03
2022-09-23T04:49:42.331Z,7.10
2022-09-23T04:51:43.339Z,7.17
2022-09-23T04:53:43.227Z,7.15
2022-09-23T04:55:44.566Z,7.11
2022-09-23T04:57:42.679Z,7.17
2022-09-23T04:59:41.418Z,7.22
2022-09-23T05:01:41.672Z,7.33
2022-09-23T05:03:40.511Z,7.35
2022-09-23T05:05:38.610Z,7.44
2022-09-23T05:07:36.972Z,7.54
2022-09-23T05:09:35.403Z,7.69
2022-09-23T05:11:33.863Z,7.70
2022-09-23T05:13:32.729Z,7.81
2022-09-23T05:15:30.781Z,7.83
2022-09-23T05:17:31.299Z,8.02
2022-09-23T05:19:29.666Z,8.19
2022-09-23T05:21:29.116Z,8.23
2022-09-23T05:23:27.763Z,8.26
2022-09-23T05:25:26.179Z,8.22
2022-09-23T05:27:24.249Z,8.21
2022-09-23T05:29:22.396Z,8.24
2022-09-23T05:31:22.593Z,8.27
2022-09-23T05:33:22.403Z,8.26
2022-09-23T05:35:20.677Z,8.32
2022-09-23T05:37:18.714Z,8.36
2022-09-23T05:39:16.985Z,8.47
2022-09-23T05:41:15.440Z,8.61
2022-09-23T05:43:14.150Z,8.70
2022-09-23T05:45:12.577Z,8.73
2022-09-23T05:47:10.770Z,8.75
2022-09-23T05:49:10.558Z,8.83
2022-09-23T05:51:11.338Z,8.78
2022-09-23T05:53:09.485Z,8.71
2022-09-23T05:55:09.090Z,8.88
2022-09-23T05:57:07.612Z,8.96
2022-09-23T05:59:06.907Z,9.15
2022-09-23T06:01:11.364Z,9.32
2022-09-23T06:03:13.664Z,9.78
2022-09-23T06:05:13.913Z,9.84
2022-09-23T06:07:12.087Z,9.83
2022-09-23T06:09:14.536Z,9.73
2022-09-23T06:11:13.848Z,9.58
2022-09-23T06:13:12.717Z,9.57
2022-09-23T06:15:12.233Z,10.07
2022-09-23T06:17:10.561Z,10.36
2022-09-23T06:19:09.980Z,10.30
2022-09-23T06:21:11.242Z,10.22
2022-09-23T06:23:11.578Z,10.36
2022-09-23T06:25:11.021Z,10.75
2022-09-23T06:27:11.093Z,11.18
2022-09-23T06:29:11.655Z,11.76
2022-09-23T06:31:14.027Z,12.12
2022-09-23T06:33:12.457Z,11.99
2022-09-23T06:35:22.559Z,11.29
2022-09-23T06:37:24.334Z,11.14
2022-09-23T06:39:27.883Z,11.18
2022-09-23T06:41:26.335Z,11.41
2022-09-23T06:43:29.205Z,11.38
2022-09-23T06:45:27.940Z,11.38
2022-09-23T06:47:27.772Z,11.42
2022-09-23T06:49:26.638Z,11.29
2022-09-23T06:51:24.838Z,11.14
2022-09-23T06:53:27.176Z,10.81
2022-09-23T06:55:27.893Z,10.78
2022-09-23T06:57:26.138Z,11.13
2022-09-23T06:59:25.144Z,11.45
2022-09-23T07:01:23.363Z,11.49
2022-09-23T07:03:22.346Z,11.37
2022-09-23T07:05:22.340Z,11.76
2022-09-23T07:07:20.892Z,12.16
2022-09-23T07:09:20.727Z,12.31
2022-09-23T07:11:22.498Z,12.48
2022-09-23T07:13:21.150Z,12.54
2022-09-23T07:15:19.364Z,12.48
2022-09-23T07:17:17.577Z,12.56
2022-09-23T07:19:16.094Z,12.71
2022-09-23T07:21:17.949Z,12.44
2022-09-23T07:23:17.915Z,12.27
2022-09-23T07:25:17.550Z,12.13
2022-09-23T07:27:16.641Z,12.50
2022-09-23T07:29:15.856Z,13.05
2022-09-23T07:31:20.486Z,13.39
2022-09-23T07:33:30.754Z,13.79
2022-09-23T07:35:30.311Z,13.74
2022-09-23T07:37:28.697Z,14.02
2022-09-23T07:39:27.131Z,14.33
2022-09-23T07:41:28.947Z,14.25
2022-09-23T07:43:31.982Z,14.18
2022-09-23T07:45:32.038Z,13.77
2022-09-23T07:47:31.577Z,13.68
2022-09-23T07:49:29.925Z,13.42
2022-09-23T07:51:35.437Z,13.26
2022-09-23T07:53:34.615Z,13.03
2022-09-23T07:55:33.076Z,13.10
2022-09-23T07:57:33.185Z,13.65
2022-09-23T07:59:32.054Z,13.56
2022-09-23T08:01:33.102Z,13.67
2022-09-23T08:03:31.250Z,14.00
2022-09-23T08:05:29.645Z,14.51
2022-09-23T08:07:27.704Z,14.26
2022-09-23T08:09:29.239Z,13.96
2022-09-23T08:11:28.550Z,14.01
2022-09-23T08:13:28.100Z,14.50
2022-09-23T08:15:27.248Z,14.80
2022-09-23T08:17:25.525Z,15.37
2022-09-23T08:19:23.838Z,15.59
2022-09-23T08:21:24.610Z,15.79
2022-09-23T08:23:23.296Z,16.13
2022-09-23T08:25:22.732Z,15.29
2022-09-23T08:27:21.198Z,14.34
2022-09-23T08:29:23.075Z,13.84
2022-09-23T08:31:21.723Z,14.79
2022-09-23T08:33:23.391Z,15.30
2022-09-23T08:35:22.154Z,15.95
2022-09-23T08:37:20.195Z,15.62
2022-09-23T08:39:20.359Z,15.39
2022-09-23T08:41:27.328Z,16.14
2022-09-23T08:43:29.577Z,16.85
2022-09-23T08:45:29.763Z,17.54
2022-09-23T08:47:32.357Z,17.30
2022-09-23T08:49:36.665Z,17.82
2022-09-23T08:51:41.193Z,17.64
2022-09-23T08:53:40.442Z,18.04
2022-09-23T08:55:43.611Z,18.57
2022-09-23T08:58:23.531Z,19.37
2022-09-23T09:00:24.691Z,20.29
2022-09-23T09:02:26.358Z,19.70
2022-09-23T09:04:28.477Z,18.66
2022-09-23T09:06:32.131Z,18.69
2022-09-23T09:08:34.754Z,20.20
2022-09-23T09:10:45.761Z,22.02
2022-09-23T09:12:46.624Z,21.80
2022-09-23T09:14:53.293Z,21.32
2022-09-23T09:17:02.822Z,20.45
2022-09-23T09:19:03.281Z,18.87
2022-09-23T09:21:12.617Z,18.25
2022-09-23T09:23:22.634Z,19.15
2022-09-23T09:25:28.780Z,19.85
2022-09-23T09:27:30.216Z,23.16
2022-09-23T09:29:35.685Z,23.52
2022-09-23T09:31:38.995Z,23.71
2022-09-23T09:33:42.198Z,23.87
2022-09-23T09:35:50.408Z,24.05
2022-09-23T09:37:49.581Z,23.57
2022-09-23T09:39:47.814Z,24.24
2022-09-23T09:41:49.926Z,25.14
2022-09-23T09:43:56.370Z,25.50
2022-09-23T09:46:08.409Z,23.82
2022-09-23T09:48:12.156Z,21.43
2022-09-23T09:50:21.672Z,21.95
2022-09-23T09:52:26.902Z,24.25
2022-09-23T09:54:27.178Z,22.53
2022-09-23T09:56:32.287Z,23.59
2022-09-23T09:58:41.763Z,25.02
2022-09-23T10:00:44.073Z,25.06
2022-09-23T10:02:42.229Z,25.81
2022-09-23T10:04:43.123Z,26.00
2022-09-23T10:06:41.903Z,25.75
2022-09-23T10:08:41.738Z,23.25
2022-09-23T10:10:41.771Z,22.71
2022-09-23T10:12:48.729Z,22.62
2022-09-23T10:14:50.721Z,23.74
2022-09-23T10:17:03.693Z,24.61
2022-09-23T10:19:04.833Z,24.93
2022-09-23T10:21:09.423Z,26.08
2022-09-23T10:23:10.217Z,26.29
2022-09-23T10:25:16.972Z,26.71
2022-09-23T10:27:15.296Z,25.99
2022-09-23T10:29:26.216Z,25.08
2022-09-23T10:31:27.283Z,25.67
2022-09-23T10:33:28.973Z,25.65
2022-09-23T10:35:29.101Z,25.43
2022-09-23T10:37:32.818Z,24.70
2022-09-23T10:39:48.283Z,24.18
2022-09-23T10:42:17.044Z,22.94
2022-09-23T10:44:51.477Z,21.01
2022-09-23T10:47:01.154Z,20.04
2022-09-23T10:49:20.874Z,19.03
2022-09-23T10:51:26.539Z,18.02
2022-09-23T10:53:35.185Z,17.84
2022-09-23T10:55:46.028Z,17.49
2022-09-23T10:58:05.904Z,17.71
2022-09-23T11:00:11.500Z,17.78
2022-09-23T11:02:26.376Z,17.87
2022-09-23T11:04:55.449Z,17.86
2022-09-23T11:07:09.028Z,18.00
2022-09-23T11:09:25.206Z,18.01
2022-09-23T11:11:37.939Z,17.90
2022-09-23T11:13:54.518Z,18.01
2022-09-23T11:16:04.078Z,17.92
2022-09-23T11:18:29.271Z,17.75
2022-09-23T11:20:46.012Z,17.47
2022-09-23T11:22:57.587Z,17.07
2022-09-23T11:25:09.033Z,17.28
2022-09-23T11:27:20.376Z,17.64
2022-09-23T11:29:34.482Z,17.68
2022-09-23T11:31:39.021Z,17.69
2022-09-23T11:33:50.884Z,17.59
2022-09-23T11:35:52.724Z,17.65
2022-09-23T11:37:56.972Z,17.39
2022-09-23T11:40:02.333Z,17.19
2022-09-23T11:42:02.760Z,17.17
2022-09-23T11:44:08.499Z,17.31
2022-09-23T11:46:16.059Z,17.28
2022-09-23T11:48:19.769Z,17.35
2022-09-23T11:50:26.020Z,17.90
2022-09-23T11:52:29.557Z,17.85
2022-09-23T11:54:34.871Z,18.14
2022-09-23T11:56:40.419Z,18.00
2022-09-23T11:58:50.426Z,18.01
2022-09-23T12:01:01.657Z,17.84
2022-09-23T12:03:32.784Z,18.13
2022-09-23T12:05:40.750Z,17.93
2022-09-23T12:08:03.794Z,17.38
2022-09-23T12:10:07.709Z,16.31
2022-09-23T12:12:26.879Z,15.61
2022-09-23T12:14:37.666Z,15.06
2022-09-23T12:17:08.507Z,14.70
2022-09-23T12:19:28.088Z,14.54
2022-09-23T12:21:51.730Z,14.57
2022-09-23T12:24:19.561Z,14.62
2022-09-23T12:26:28.190Z,14.61
2022-09-23T12:28:37.460Z,14.80
2022-09-23T12:30:40.327Z,14.85
2022-09-23T12:32:40.972Z,15.08
2022-09-23T12:34:49.184Z,15.25
2022-09-23T12:36:47.872Z,15.24
2022-09-23T12:38:55.320Z,15.37
2022-09-23T12:40:55.995Z,15.46
2022-09-23T12:42:54.204Z,15.25
2022-09-23T12:45:20.403Z,15.20
2022-09-23T12:47:41.373Z,15.35
2022-09-23T12:49:41.442Z,15.08
2022-09-23T12:52:26.238Z,15.03
2022-09-23T12:54:26.152Z,15.04
2022-09-23T12:56:27.610Z,14.77
2022-09-23T12:58:58.990Z,14.73
2022-09-23T13:01:24.625Z,14.63
2022-09-23T13:03:50.623Z,14.57
2022-09-23T13:06:11.055Z,14.55
2022-09-23T13:08:19.632Z,14.78
2022-09-23T13:10:25.804Z,14.85
2022-09-23T13:12:29.700Z,14.92
2022-09-23T13:14:39.986Z,14.86
2022-09-23T13:16:43.802Z,14.87
2022-09-23T13:18:56.546Z,14.90
2022-09-23T13:20:56.997Z,14.96
2022-09-23T13:23:07.279Z,15.02
2022-09-23T13:25:20.637Z,14.63
2022-09-23T13:27:31.048Z,14.74
2022-09-23T13:29:37.543Z,14.87
2022-09-23T13:31:35.936Z,14.92
2022-09-23T13:33:46.377Z,14.82
2022-09-23T13:35:51.772Z,14.88
2022-09-23T13:37:53.126Z,14.93
2022-09-23T13:40:07.576Z,14.73
2022-09-23T13:42:17.122Z,14.76
2022-09-23T13:44:21.782Z,14.78
2022-09-23T13:46:31.073Z,14.79
2022-09-23T13:48:33.018Z,14.90
2022-09-23T13:50:34.852Z,14.89
2022-09-23T13:52:37.140Z,14.86
2022-09-23T13:54:56.371Z,14.97
2022-09-23T13:56:54.495Z,14.96
2022-09-23T13:58:52.791Z,15.03
2022-09-23T14:00:52.062Z,14.94
2022-09-23T14:02:50.277Z,15.02
2022-09-23T14:04:48.564Z,15.12
2022-09-23T14:06:47.054Z,15.25
2022-09-23T14:08:47.344Z,15.33
2022-09-23T14:13:26.229Z,15.07
2022-09-23T14:15:24.638Z,14.96
2022-09-23T14:17:24.271Z,14.77
2022-09-23T14:19:24.269Z,14.80
2022-09-23T14:21:35.147Z,14.81
2022-09-23T14:23:36.553Z,14.65
2022-09-23T14:25:38.927Z,14.57
2022-09-23T14:27:39.760Z,14.52
2022-09-23T14:29:40.988Z,14.50
2022-09-23T14:32:03.573Z,14.58
2022-09-23T14:34:27.670Z,14.66
2022-09-23T14:36:43.649Z,14.56
2022-09-23T14:38:53.905Z,14.64
2022-09-23T14:40:54.605Z,14.59
2022-09-23T14:43:00.674Z,14.49
2022-09-23T14:44:58.886Z,14.48
2022-09-23T14:47:00.092Z,14.47
2022-09-23T14:49:06.026Z,14.51
2022-09-23T14:51:14.618Z,14.69
2022-09-23T14:53:46.427Z,14.81
2022-09-23T14:55:45.412Z,14.97
2022-09-23T14:57:44.680Z,15.02
2022-09-23T14:59:50.671Z,14.97
2022-09-23T15:01:48.744Z,14.97
2022-09-23T15:03:48.595Z,14.93
2022-09-23T15:05:48.056Z,14.86
2022-09-23T15:07:51.103Z,14.89
2022-09-23T15:09:49.409Z,14.81
2022-09-23T15:11:47.881Z,14.77
2022-09-23T15:13:51.287Z,14.71
2022-09-23T15:15:53.727Z,14.61
2022-09-23T15:17:52.096Z,14.53
2022-09-23T15:19:58.744Z,14.54
2022-09-23T15:21:56.945Z,14.60
2022-09-23T15:23:57.536Z,14.58
2022-09-23T15:25:55.779Z,14.48
2022-09-23T15:28:02.428Z,14.38
2022-09-23T15:30:18.940Z,14.33
2022-09-23T15:32:19.052Z,14.33
2022-09-23T15:34:19.113Z,14.29
2022-09-23T15:36:19.379Z,14.17
2022-09-23T15:38:18.672Z,14.07
2022-09-23T15:40:21.108Z,13.90
2022-09-23T15:42:19.594Z,13.80
2022-09-23T15:44:21.530Z,13.76
2022-09-23T15:46:23.330Z,13.65
2022-09-23T15:48:24.942Z,13.60
2022-09-23T15:50:41.579Z,13.51
2022-09-23T15:52:48.405Z,13.39
2022-09-23T15:54:49.971Z,13.29
2022-09-23T15:56:48.568Z,13.21
2022-09-23T15:58:47.205Z,13.23
2022-09-23T16:00:46.067Z,13.19
2022-09-23T16:02:52.633Z,13.23
2022-09-23T16:04:55.668Z,13.16
2022-09-23T16:07:01.689Z,13.11
2022-09-23T16:09:03.511Z,12.99
2022-09-23T16:11:02.511Z,12.85
2022-09-23T16:13:04.049Z,12.79
2022-09-23T16:15:03.585Z,12.70
2022-09-23T16:17:03.539Z,12.68
2022-09-23T16:19:09.073Z,12.65
2022-09-23T16:21:13.711Z,12.57
2022-09-23T16:23:35.313Z,12.54
2022-09-23T16:25:37.339Z,12.47
2022-09-23T16:27:37.410Z,12.44
2022-09-23T16:29:35.844Z,12.37
2022-09-23T16:31:34.491Z,12.27
2022-09-23T16:33:32.722Z,12.17
2022-09-23T16:35:34.658Z,12.10
2022-09-23T16:37:35.179Z,12.02
2022-09-23T16:39:33.540Z,11.94
2022-09-23T16:41:32.594Z,11.88
2022-09-23T16:43:39.567Z,11.81
2022-09-23T16:45:38.265Z,11.76
2022-09-23T16:47:44.430Z,11.74
2022-09-23T16:49:43.564Z,11.65
2022-09-23T16:51:42.046Z,11.59
2022-09-23T16:53:42.659Z,11.55
2022-09-23T16:55:41.261Z,11.56
2022-09-23T16:57:41.099Z,11.52
2022-09-23T16:59:56.637Z,11.48
2022-09-23T17:02:12.431Z,11.41
2022-09-23T17:04:11.472Z,11.31
2022-09-23T17:06:12.269Z,11.22
2022-09-23T17:08:13.244Z,11.20
2022-09-23T17:10:13.133Z,11.13
2022-09-23T17:12:17.954Z,11.09
2022-09-23T17:14:16.309Z,11.11
2022-09-23T17:16:24.971Z,11.10
2022-09-23T17:18:23.305Z,11.05
2022-09-23T17:20:22.284Z,11.06
2022-09-23T17:22:20.741Z,11.06
2022-09-23T17:24:19.127Z,11.03
2022-09-23T17:26:18.742Z,10.98
2022-09-23T17:28:17.112Z,10.96
2022-09-23T17:30:15.784Z,10.94
2022-09-23T17:32:14.179Z,10.88
2022-09-23T17:34:12.933Z,10.86
2022-09-23T17:36:13.388Z,10.83
2022-09-23T17:38:11.990Z,10.75
2022-09-23T17:40:13.114Z,10.65
2022-09-23T17:42:13.270Z,10.56
2022-09-23T17:44:11.621Z,10.57
2022-09-23T17:46:12.920Z,10.49
2022-09-23T17:48:11.054Z,10.45
2022-09-23T17:50:09.946Z,10.30
2022-09-23T17:52:08.380Z,10.27
2022-09-23T17:54:06.689Z,10.41
2022-09-23T17:56:06.811Z,10.26
2022-09-23T17:58:06.669Z,10.04
2022-09-23T18:00:05.810Z,10.06
2022-09-23T18:02:15.426Z,10.09
2022-09-23T18:04:14.243Z,9.95
2022-09-23T18:06:14.145Z,9.86
2022-09-23T18:08:12.434Z,9.83
2022-09-23T18:10:11.000Z,9.83
2022-09-23T18:12:09.352Z,9.82
2022-09-23T18:14:15.425Z,9.93
2022-09-23T18:16:13.704Z,9.84
2022-09-23T18:18:11.944Z,9.83
2022-09-23T18:20:11.374Z,9.87
2022-09-23T18:22:09.622Z,9.79
2022-09-23T18:26:28.196Z,9.67
2022-09-23T18:28:26.334Z,9.65
2022-09-23T18:30:25.853Z,9.60
2022-09-23T18:32:24.182Z,9.59
2022-09-23T18:34:22.435Z,9.63
2022-09-23T18:36:21.238Z,9.49
2022-09-23T18:38:20.597Z,9.52
2022-09-23T18:40:19.273Z,9.55
2022-09-23T18:42:17.560Z,9.50
2022-09-23T18:44:16.973Z,9.49
2022-09-23T18:46:18.387Z,9.42
2022-09-23T18:48:34.144Z,9.31
2022-09-23T18:50:43.107Z,9.27
2022-09-23T18:52:41.259Z,9.20
2022-09-23T18:54:39.555Z,9.17
2022-09-23T18:56:42.116Z,9.21
2022-09-23T18:58:40.359Z,9.09
2022-09-23T19:00:38.689Z,9.06
2022-09-23T19:02:38.280Z,9.09
2022-09-23T19:04:36.442Z,9.05
2022-09-23T19:06:35.821Z,9.01
2022-09-23T19:08:34.463Z,9.02
2022-09-23T19:10:32.501Z,8.99
2022-09-23T19:12:31.093Z,8.96
2022-09-23T19:14:29.256Z,8.93
2022-09-23T19:16:27.960Z,8.90
2022-09-23T19:18:29.173Z,9.01
2022-09-23T19:20:27.251Z,9.06
2022-09-23T19:22:25.745Z,9.09
2022-09-23T19:24:24.034Z,9.06
2022-09-23T19:26:24.822Z,9.06
2022-09-23T19:28:25.035Z,9.02
2022-09-23T19:30:23.262Z,8.93
2022-09-23T19:32:24.450Z,8.78
2022-09-23T19:34:26.013Z,8.66
2022-09-23T19:36:26.899Z,8.53
2022-09-23T19:38:25.128Z,8.52
2022-09-23T19:40:23.239Z,8.46
2022-09-23T19:42:22.621Z,8.40
2022-09-23T19:44:20.977Z,8.38
2022-09-23T19:46:19.494Z,8.31
2022-09-23T19:48:17.778Z,8.30
2022-09-23T19:50:17.509Z,8.27
2022-09-23T19:52:15.649Z,8.24
2022-09-23T19:54:20.886Z,8.31
2022-09-23T19:56:19.930Z,8.49
2022-09-23T19:58:18.315Z,8.49
2022-09-23T20:00:17.055Z,8.51
2022-09-23T20:02:16.646Z,8.53
2022-09-23T20:04:15.789Z,8.53
2022-09-23T20:06:15.980Z,8.55
2022-09-23T20:08:14.302Z,8.59
2022-09-23T20:10:13.321Z,8.59
2022-09-23T20:12:12.456Z,8.58
2022-09-23T20:14:12.968Z,8.58
2022-09-23T20:16:12.443Z,8.54
2022-09-23T20:18:11.303Z,8.53
2022-09-23T20:20:11.304Z,8.51
2022-09-23T20:22:28.525Z,8.47
2022-09-23T20:24:30.734Z,8.43
2022-09-23T20:26:46.371Z,8.42
2022-09-23T20:28:44.585Z,8.41
2022-09-23T20:30:43.960Z,8.39
2022-09-23T20:32:44.779Z,8.38
2022-09-23T20:34:46.700Z,8.31
2022-09-23T20:36:45.007Z,8.25
2022-09-23T20:38:44.738Z,8.16
2022-09-23T20:40:55.874Z,8.15
2022-09-23T20:42:54.658Z,8.11
2022-09-23T20:44:52.978Z,8.10
2022-09-23T20:46:51.876Z,8.14
2022-09-23T20:48:50.986Z,8.08
2022-09-23T20:50:51.290Z,8.09
2022-09-23T20:52:49.531Z,8.07
2022-09-23T20:54:50.390Z,7.99
2022-09-23T20:56:49.223Z,7.91
2022-09-23T20:58:48.749Z,7.83
2022-09-23T21:00:47.406Z,7.82
2022-09-23T21:02:46.270Z,7.87
2022-09-23T21:04:44.689Z,7.89
2022-09-23T21:06:43.037Z,7.90
2022-09-23T21:08:42.519Z,7.88
2022-09-23T21:10:42.271Z,7.89
2022-09-23T21:12:40.515Z,7.87
2022-09-23T21:14:39.546Z,7.81
2022-09-23T21:16:37.787Z,7.78
2022-09-23T21:18:37.191Z,7.70
2022-09-23T21:20:35.534Z,7.67
2022-09-23T21:22:35.770Z,7.62
2022-09-23T21:25:03.841Z,7.60
2022-09-23T21:26:53.596Z,7.58
2022-09-23T21:28:53.050Z,7.54
2022-09-23T21:30:52.161Z,7.51
2022-09-23T21:32:50.429Z,7.46
2022-09-23T21:34:49.238Z,7.31
2022-09-23T21:36:49.083Z,7.16
2022-09-23T21:38:47.316Z,7.04
2022-09-23T21:40:56.792Z,7.03
2022-09-23T21:42:59.305Z,6.96
2022-09-23T21:44:59.506Z,6.91
2022-09-23T21:47:00.578Z,6.92
2022-09-23T21:48:58.817Z,6.94
2022-09-23T21:50:58.915Z,6.95
2022-09-23T21:52:57.264Z,7.04
2022-09-23T21:54:55.465Z,7.03
2022-09-23T21:56:54.440Z,7.00
2022-09-23T21:58:55.177Z,6.92
2022-09-23T22:00:53.302Z,6.81
2022-09-23T22:02:53.432Z,6.71
2022-09-23T22:04:51.565Z,6.63
2022-09-23T22:06:49.889Z,6.56
2022-09-23T22:08:49.654Z,6.61
2022-09-23T22:10:47.914Z,6.57
2022-09-23T22:12:49.015Z,6.64
2022-09-23T22:14:49.082Z,6.64
2022-09-23T22:16:47.746Z,6.61
2022-09-23T22:18:46.096Z,6.61
2022-09-23T22:20:44.350Z,6.50
2022-09-23T22:22:42.553Z,6.41
2022-09-23T22:24:44.810Z,6.35
2022-09-23T22:26:45.073Z,6.36
2022-09-23T22:29:00.419Z,6.34
2022-09-23T22:31:18.250Z,6.31
2022-09-23T22:33:16.796Z,6.42
2022-09-23T22:35:17.860Z,6.49
2022-09-23T22:37:17.966Z,6.54
2022-09-23T22:39:16.314Z,6.59
2022-09-23T22:41:15.263Z,6.56
2022-09-23T22:43:14.115Z,6.47
2022-09-23T22:45:13.276Z,6.39
2022-09-23T22:47:13.138Z,6.32
2022-09-23T22:49:12.372Z,6.32
2022-09-23T22:51:12.515Z,6.25
2022-09-23T22:53:11.110Z,6.29
2022-09-23T22:55:10.173Z,6.25
2022-09-23T22:57:09.624Z,6.37
2022-09-23T22:59:09.337Z,6.39
2022-09-23T23:01:07.550Z,6.44
2022-09-23T23:03:07.574Z,6.46
2022-09-23T23:05:06.752Z,6.43
2022-09-23T23:07:07.018Z,6.35
2022-09-23T23:09:08.119Z,6.27
2022-09-23T23:11:10.196Z,6.21
2022-09-23T23:13:08.434Z,6.19
2022-09-23T23:15:07.634Z,6.13
2022-09-23T23:17:08.607Z,6.08
2022-09-23T23:19:13.688Z,6.15
2022-09-23T23:21:13.667Z,6.24
2022-09-23T23:23:11.781Z,6.27
2022-09-23T23:25:10.769Z,6.28
2022-09-23T23:27:09.090Z,6.24
2022-09-23T23:29:07.475Z,6.13
2022-09-23T23:31:06.398Z,6.05
2022-09-23T23:33:04.756Z,6.00
2022-09-23T23:35:04.888Z,5.96
2022-09-23T23:37:03.243Z,5.93
2022-09-23T23:39:01.427Z,5.96
2022-09-23T23:41:03.275Z,5.96
2022-09-23T23:43:02.186Z,5.97
2022-09-23T23:45:00.251Z,6.01
2022-09-23T23:46:58.588Z,6.05
2022-09-23T23:48:58.225Z,6.04
2022-09-23T23:50:59.941Z,6.05
2022-09-23T23:52:59.474Z,6.04
2022-09-23T23:54:57.741Z,5.94
2022-09-23T23:56:55.842Z,5.97
2022-09-23T23:58:57.540Z,5.89
